sensor_id;sensor_type;location;lat;lon;timestamp;P1;durP1;ratioP1;P2;durP2;ratioP2
7881;SDS011;3986;41.884;23.466;2022-12-10T00:01:27;107.20;;;94.17;;
7881;SDS011;3986;41.884;23.466;2022-12-10T00:03:56;100.57;;;89.53;;
7881;SDS011;3986;41.884;23.466;2022-12-10T00:06:24;103.53;;;88.93;;
7881;SDS011;3986;41.884;23.466;2022-12-10T00:08:52;105.30;;;93.00;;
7881;SDS011;3986;41.884;23.466;2022-12-10T00:11:19;119.60;;;106.97;;
7881;SDS011;3986;41.884;23.466;2022-12-10T00:13:47;120.90;;;107.87;;
7881;SDS011;3986;41.884;23.466;2022-12-10T00:16:17;125.33;;;109.57;;
7881;SDS011;3986;41.884;23.466;2022-12-10T00:18:46;111.50;;;98.20;;
7881;SDS011;3986;41.884;23.466;2022-12-10T00:21:14;126.07;;;105.43;;
7881;SDS011;3986;41.884;23.466;2022-12-10T00:23:42;112.93;;;100.60;;
7881;SDS011;3986;41.884;23.466;2022-12-10T00:26:10;110.50;;;96.40;;
7881;SDS011;3986;41.884;23.466;2022-12-10T00:28:38;115.20;;;102.53;;
7881;SDS011;3986;41.884;23.466;2022-12-10T00:31:06;106.93;;;95.17;;
7881;SDS011;3986;41.884;23.466;2022-12-10T00:33:37;121.17;;;107.80;;
7881;SDS011;3986;41.884;23.466;2022-12-10T00:36:05;122.00;;;106.53;;
7881;SDS011;3986;41.884;23.466;2022-12-10T00:38:34;110.00;;;98.73;;
7881;SDS011;3986;41.884;23.466;2022-12-10T00:41:01;105.47;;;93.97;;
7881;SDS011;3986;41.884;23.466;2022-12-10T00:43:28;103.63;;;91.33;;
7881;SDS011;3986;41.884;23.466;2022-12-10T00:45:55;110.77;;;99.00;;
7881;SDS011;3986;41.884;23.466;2022-12-10T00:48:23;113.60;;;100.60;;
7881;SDS011;3986;41.884;23.466;2022-12-10T00:50:58;104.23;;;93.63;;
7881;SDS011;3986;41.884;23.466;2022-12-10T00:53:26;110.90;;;96.50;;
7881;SDS011;3986;41.884;23.466;2022-12-10T00:55:54;119.03;;;106.43;;
7881;SDS011;3986;41.884;23.466;2022-12-10T00:58:22;109.57;;;95.30;;
7881;SDS011;3986;41.884;23.466;2022-12-10T01:00:49;94.87;;;83.33;;
7881;SDS011;3986;41.884;23.466;2022-12-10T01:03:15;79.23;;;68.57;;
7881;SDS011;3986;41.884;23.466;2022-12-10T01:05:42;78.97;;;59.80;;
7881;SDS011;3986;41.884;23.466;2022-12-10T01:08:10;73.57;;;60.37;;
7881;SDS011;3986;41.884;23.466;2022-12-10T01:10:37;70.07;;;60.00;;
7881;SDS011;3986;41.884;23.466;2022-12-10T01:13:04;79.23;;;60.87;;
7881;SDS011;3986;41.884;23.466;2022-12-10T01:15:31;81.13;;;62.90;;
7881;SDS011;3986;41.884;23.466;2022-12-10T01:18:03;88.33;;;73.43;;
7881;SDS011;3986;41.884;23.466;2022-12-10T01:20:33;79.63;;;68.20;;
7881;SDS011;3986;41.884;23.466;2022-12-10T01:23:01;74.27;;;65.43;;
7881;SDS011;3986;41.884;23.466;2022-12-10T01:25:29;78.67;;;70.23;;
7881;SDS011;3986;41.884;23.466;2022-12-10T01:27:56;81.20;;;67.80;;
7881;SDS011;3986;41.884;23.466;2022-12-10T01:30:23;80.93;;;72.33;;
7881;SDS011;3986;41.884;23.466;2022-12-10T01:32:50;85.53;;;72.00;;
7881;SDS011;3986;41.884;23.466;2022-12-10T01:35:17;73.20;;;65.33;;
7881;SDS011;3986;41.884;23.466;2022-12-10T01:37:44;80.47;;;71.80;;
7881;SDS011;3986;41.884;23.466;2022-12-10T01:40:11;89.20;;;76.40;;
7881;SDS011;3986;41.884;23.466;2022-12-10T01:42:39;102.13;;;78.47;;
7881;SDS011;3986;41.884;23.466;2022-12-10T01:45:07;91.13;;;80.63;;
7881;SDS011;3986;41.884;23.466;2022-12-10T01:47:36;84.00;;;74.10;;
7881;SDS011;3986;41.884;23.466;2022-12-10T01:50:04;84.07;;;72.27;;
7881;SDS011;3986;41.884;23.466;2022-12-10T01:52:32;90.23;;;77.33;;
7881;SDS011;3986;41.884;23.466;2022-12-10T01:54:59;82.53;;;73.90;;
7881;SDS011;3986;41.884;23.466;2022-12-10T01:57:26;77.13;;;68.60;;
7881;SDS011;3986;41.884;23.466;2022-12-10T01:59:56;77.50;;;69.13;;
7881;SDS011;3986;41.884;23.466;2022-12-10T02:02:34;103.10;;;92.20;;
7881;SDS011;3986;41.884;23.466;2022-12-10T02:05:11;108.17;;;96.30;;
7881;SDS011;3986;41.884;23.466;2022-12-10T02:07:51;107.17;;;95.73;;
7881;SDS011;3986;41.884;23.466;2022-12-10T02:10:25;96.83;;;86.77;;
7881;SDS011;3986;41.884;23.466;2022-12-10T02:13:04;97.47;;;87.23;;
7881;SDS011;3986;41.884;23.466;2022-12-10T02:15:39;95.80;;;85.43;;
7881;SDS011;3986;41.884;23.466;2022-12-10T02:18:11;107.50;;;89.53;;
7881;SDS011;3986;41.884;23.466;2022-12-10T02:20:40;118.27;;;105.73;;
7881;SDS011;3986;41.884;23.466;2022-12-10T02:23:10;104.07;;;93.20;;
7881;SDS011;3986;41.884;23.466;2022-12-10T02:25:41;115.40;;;103.57;;
7881;SDS011;3986;41.884;23.466;2022-12-10T02:28:13;108.97;;;97.07;;
7881;SDS011;3986;41.884;23.466;2022-12-10T02:30:45;114.77;;;103.07;;
7881;SDS011;3986;41.884;23.466;2022-12-10T02:33:13;112.57;;;100.33;;
7881;SDS011;3986;41.884;23.466;2022-12-10T02:35:43;126.17;;;106.00;;
7881;SDS011;3986;41.884;23.466;2022-12-10T02:38:14;111.80;;;99.67;;
7881;SDS011;3986;41.884;23.466;2022-12-10T02:40:44;113.13;;;101.10;;
7881;SDS011;3986;41.884;23.466;2022-12-10T02:43:14;126.00;;;112.30;;
7881;SDS011;3986;41.884;23.466;2022-12-10T02:45:44;127.10;;;110.27;;
7881;SDS011;3986;41.884;23.466;2022-12-10T02:48:12;122.53;;;110.00;;
7881;SDS011;3986;41.884;23.466;2022-12-10T02:50:40;110.83;;;98.80;;
7881;SDS011;3986;41.884;23.466;2022-12-10T02:53:07;107.87;;;96.20;;
7881;SDS011;3986;41.884;23.466;2022-12-10T02:55:38;116.20;;;104.17;;
7881;SDS011;3986;41.884;23.466;2022-12-10T02:58:20;111.43;;;99.50;;
7881;SDS011;3986;41.884;23.466;2022-12-10T03:00:56;119.93;;;107.43;;
7881;SDS011;3986;41.884;23.466;2022-12-10T03:03:32;114.13;;;102.60;;
7881;SDS011;3986;41.884;23.466;2022-12-10T03:06:05;121.07;;;108.60;;
7881;SDS011;3986;41.884;23.466;2022-12-10T03:08:39;110.73;;;98.60;;
7881;SDS011;3986;41.884;23.466;2022-12-10T03:11:12;110.80;;;98.87;;
7881;SDS011;3986;41.884;23.466;2022-12-10T03:13:43;107.80;;;96.23;;
7881;SDS011;3986;41.884;23.466;2022-12-10T03:16:19;112.17;;;99.27;;
7881;SDS011;3986;41.884;23.466;2022-12-10T03:18:49;110.30;;;98.50;;
7881;SDS011;3986;41.884;23.466;2022-12-10T03:21:19;111.50;;;99.63;;
7881;SDS011;3986;41.884;23.466;2022-12-10T03:23:46;106.23;;;94.83;;
7881;SDS011;3986;41.884;23.466;2022-12-10T03:26:15;108.30;;;96.60;;
7881;SDS011;3986;41.884;23.466;2022-12-10T03:28:45;114.23;;;102.23;;
7881;SDS011;3986;41.884;23.466;2022-12-10T03:31:16;124.30;;;111.43;;
7881;SDS011;3986;41.884;23.466;2022-12-10T03:33:45;115.37;;;103.07;;
7881;SDS011;3986;41.884;23.466;2022-12-10T03:36:13;112.10;;;100.50;;
7881;SDS011;3986;41.884;23.466;2022-12-10T03:38:43;112.60;;;99.80;;
7881;SDS011;3986;41.884;23.466;2022-12-10T03:41:09;112.63;;;100.70;;
7881;SDS011;3986;41.884;23.466;2022-12-10T03:43:49;106.10;;;95.17;;
7881;SDS011;3986;41.884;23.466;2022-12-10T03:46:36;103.57;;;92.90;;
7881;SDS011;3986;41.884;23.466;2022-12-10T03:49:03;102.97;;;92.13;;
7881;SDS011;3986;41.884;23.466;2022-12-10T03:51:30;101.13;;;90.73;;
7881;SDS011;3986;41.884;23.466;2022-12-10T03:53:57;103.00;;;92.63;;
7881;SDS011;3986;41.884;23.466;2022-12-10T03:56:24;101.17;;;90.17;;
7881;SDS011;3986;41.884;23.466;2022-12-10T03:58:51;111.67;;;99.80;;
7881;SDS011;3986;41.884;23.466;2022-12-10T04:01:18;112.63;;;100.70;;
7881;SDS011;3986;41.884;23.466;2022-12-10T04:03:46;110.17;;;98.60;;
7881;SDS011;3986;41.884;23.466;2022-12-10T04:06:15;126.17;;;112.77;;
7881;SDS011;3986;41.884;23.466;2022-12-10T04:08:43;111.93;;;99.70;;
7881;SDS011;3986;41.884;23.466;2022-12-10T04:11:11;102.70;;;92.93;;
7881;SDS011;3986;41.884;23.466;2022-12-10T04:13:39;98.70;;;88.60;;
7881;SDS011;3986;41.884;23.466;2022-12-10T04:16:24;98.93;;;89.00;;
7881;SDS011;3986;41.884;23.466;2022-12-10T04:18:56;90.87;;;81.13;;
7881;SDS011;3986;41.884;23.466;2022-12-10T04:21:24;88.27;;;78.77;;
7881;SDS011;3986;41.884;23.466;2022-12-10T04:24:08;69.33;;;61.63;;
7881;SDS011;3986;41.884;23.466;2022-12-10T04:26:52;73.50;;;61.87;;
7881;SDS011;3986;41.884;23.466;2022-12-10T04:29:20;64.77;;;57.83;;
7881;SDS011;3986;41.884;23.466;2022-12-10T04:31:48;57.00;;;50.77;;
7881;SDS011;3986;41.884;23.466;2022-12-10T04:34:16;58.43;;;47.63;;
7881;SDS011;3986;41.884;23.466;2022-12-10T04:36:43;49.63;;;43.83;;
7881;SDS011;3986;41.884;23.466;2022-12-10T04:39:10;44.07;;;39.47;;
7881;SDS011;3986;41.884;23.466;2022-12-10T04:41:37;42.27;;;37.83;;
7881;SDS011;3986;41.884;23.466;2022-12-10T04:44:05;45.53;;;40.67;;
7881;SDS011;3986;41.884;23.466;2022-12-10T04:46:32;47.17;;;42.27;;
7881;SDS011;3986;41.884;23.466;2022-12-10T04:48:59;56.23;;;50.20;;
7881;SDS011;3986;41.884;23.466;2022-12-10T04:51:27;54.67;;;48.27;;
7881;SDS011;3986;41.884;23.466;2022-12-10T04:53:54;57.50;;;51.37;;
7881;SDS011;3986;41.884;23.466;2022-12-10T04:56:21;65.47;;;55.70;;
7881;SDS011;3986;41.884;23.466;2022-12-10T04:58:48;67.87;;;59.80;;
7881;SDS011;3986;41.884;23.466;2022-12-10T05:01:14;67.07;;;59.83;;
7881;SDS011;3986;41.884;23.466;2022-12-10T05:03:43;76.20;;;67.93;;
7881;SDS011;3986;41.884;23.466;2022-12-10T05:06:11;81.30;;;72.80;;
7881;SDS011;3986;41.884;23.466;2022-12-10T05:08:40;95.60;;;85.27;;
7881;SDS011;3986;41.884;23.466;2022-12-10T05:11:09;83.43;;;74.70;;
7881;SDS011;3986;41.884;23.466;2022-12-10T05:13:37;74.43;;;67.17;;
7881;SDS011;3986;41.884;23.466;2022-12-10T05:16:05;78.57;;;70.17;;
7881;SDS011;3986;41.884;23.466;2022-12-10T05:18:33;87.07;;;78.17;;
7881;SDS011;3986;41.884;23.466;2022-12-10T05:21:00;83.77;;;73.87;;
7881;SDS011;3986;41.884;23.466;2022-12-10T05:23:28;88.40;;;78.67;;
7881;SDS011;3986;41.884;23.466;2022-12-10T05:25:59;80.53;;;72.00;;
7881;SDS011;3986;41.884;23.466;2022-12-10T05:28:27;99.03;;;88.60;;
7881;SDS011;3986;41.884;23.466;2022-12-10T05:30:54;93.73;;;84.27;;
7881;SDS011;3986;41.884;23.466;2022-12-10T05:33:21;97.43;;;87.27;;
7881;SDS011;3986;41.884;23.466;2022-12-10T05:35:52;90.43;;;80.77;;
7881;SDS011;3986;41.884;23.466;2022-12-10T05:38:20;107.73;;;96.80;;
7881;SDS011;3986;41.884;23.466;2022-12-10T05:40:47;97.77;;;88.20;;
7881;SDS011;3986;41.884;23.466;2022-12-10T05:43:15;95.23;;;85.80;;
7881;SDS011;3986;41.884;23.466;2022-12-10T05:45:42;92.57;;;83.30;;
7881;SDS011;3986;41.884;23.466;2022-12-10T05:48:09;95.37;;;86.20;;
7881;SDS011;3986;41.884;23.466;2022-12-10T05:50:36;111.50;;;100.70;;
7881;SDS011;3986;41.884;23.466;2022-12-10T05:53:03;135.77;;;121.80;;
7881;SDS011;3986;41.884;23.466;2022-12-10T05:55:30;169.33;;;151.57;;
7881;SDS011;3986;41.884;23.466;2022-12-10T05:57:58;158.27;;;141.83;;
7881;SDS011;3986;41.884;23.466;2022-12-10T06:00:26;167.23;;;150.53;;
7881;SDS011;3986;41.884;23.466;2022-12-10T06:02:53;153.07;;;137.17;;
7881;SDS011;3986;41.884;23.466;2022-12-10T06:05:20;152.27;;;136.90;;
7881;SDS011;3986;41.884;23.466;2022-12-10T06:07:47;155.27;;;140.33;;
7881;SDS011;3986;41.884;23.466;2022-12-10T06:10:14;158.40;;;142.47;;
7881;SDS011;3986;41.884;23.466;2022-12-10T06:12:41;137.70;;;124.50;;
7881;SDS011;3986;41.884;23.466;2022-12-10T06:15:08;154.47;;;140.10;;
7881;SDS011;3986;41.884;23.466;2022-12-10T06:17:37;158.47;;;139.63;;
7881;SDS011;3986;41.884;23.466;2022-12-10T06:20:04;145.30;;;130.77;;
7881;SDS011;3986;41.884;23.466;2022-12-10T06:22:33;149.00;;;133.77;;
7881;SDS011;3986;41.884;23.466;2022-12-10T06:25:00;140.33;;;125.73;;
7881;SDS011;3986;41.884;23.466;2022-12-10T06:27:29;150.17;;;134.93;;
7881;SDS011;3986;41.884;23.466;2022-12-10T06:29:56;154.07;;;137.83;;
7881;SDS011;3986;41.884;23.466;2022-12-10T06:32:22;147.60;;;132.10;;
7881;SDS011;3986;41.884;23.466;2022-12-10T06:34:50;141.43;;;127.90;;
7881;SDS011;3986;41.884;23.466;2022-12-10T06:37:17;168.50;;;151.43;;
7881;SDS011;3986;41.884;23.466;2022-12-10T06:39:44;199.37;;;179.57;;
7881;SDS011;3986;41.884;23.466;2022-12-10T06:42:11;191.50;;;171.87;;
7881;SDS011;3986;41.884;23.466;2022-12-10T06:44:37;359.73;;;321.53;;
7881;SDS011;3986;41.884;23.466;2022-12-10T06:47:04;219.57;;;197.40;;
7881;SDS011;3986;41.884;23.466;2022-12-10T06:49:31;237.27;;;213.40;;
7881;SDS011;3986;41.884;23.466;2022-12-10T06:51:59;195.90;;;175.50;;
7881;SDS011;3986;41.884;23.466;2022-12-10T06:54:26;202.60;;;181.60;;
7881;SDS011;3986;41.884;23.466;2022-12-10T06:56:53;195.90;;;176.30;;
7881;SDS011;3986;41.884;23.466;2022-12-10T06:59:19;247.73;;;224.13;;
7881;SDS011;3986;41.884;23.466;2022-12-10T07:01:46;233.67;;;211.10;;
7881;SDS011;3986;41.884;23.466;2022-12-10T07:04:13;207.13;;;185.77;;
7881;SDS011;3986;41.884;23.466;2022-12-10T07:06:41;184.20;;;165.37;;
7881;SDS011;3986;41.884;23.466;2022-12-10T07:09:09;173.40;;;155.87;;
7881;SDS011;3986;41.884;23.466;2022-12-10T07:11:36;132.37;;;118.60;;
7881;SDS011;3986;41.884;23.466;2022-12-10T07:14:03;123.03;;;107.03;;
7881;SDS011;3986;41.884;23.466;2022-12-10T07:16:30;108.20;;;87.67;;
7881;SDS011;3986;41.884;23.466;2022-12-10T07:18:58;95.40;;;71.00;;
7881;SDS011;3986;41.884;23.466;2022-12-10T07:21:27;74.47;;;65.90;;
7881;SDS011;3986;41.884;23.466;2022-12-10T07:23:56;92.87;;;80.47;;
7881;SDS011;3986;41.884;23.466;2022-12-10T07:26:27;81.43;;;72.87;;
7881;SDS011;3986;41.884;23.466;2022-12-10T07:28:55;80.30;;;71.10;;
7881;SDS011;3986;41.884;23.466;2022-12-10T07:31:22;81.87;;;69.80;;
7881;SDS011;3986;41.884;23.466;2022-12-10T07:33:48;98.37;;;84.80;;
7881;SDS011;3986;41.884;23.466;2022-12-10T07:36:16;134.43;;;93.57;;
7881;SDS011;3986;41.884;23.466;2022-12-10T07:38:43;90.00;;;79.07;;
7881;SDS011;3986;41.884;23.466;2022-12-10T07:41:10;98.33;;;76.73;;
7881;SDS011;3986;41.884;23.466;2022-12-10T07:43:40;89.03;;;75.20;;
7881;SDS011;3986;41.884;23.466;2022-12-10T07:46:10;92.23;;;77.50;;
7881;SDS011;3986;41.884;23.466;2022-12-10T07:48:38;125.30;;;101.20;;
7881;SDS011;3986;41.884;23.466;2022-12-10T07:51:06;103.23;;;92.90;;
7881;SDS011;3986;41.884;23.466;2022-12-10T07:53:34;100.23;;;89.80;;
7881;SDS011;3986;41.884;23.466;2022-12-10T07:56:01;119.70;;;93.10;;
7881;SDS011;3986;41.884;23.466;2022-12-10T07:58:29;102.00;;;86.43;;
7881;SDS011;3986;41.884;23.466;2022-12-10T08:00:58;143.30;;;127.93;;
7881;SDS011;3986;41.884;23.466;2022-12-10T08:03:25;130.70;;;117.13;;
7881;SDS011;3986;41.884;23.466;2022-12-10T08:06:00;131.63;;;118.07;;
7881;SDS011;3986;41.884;23.466;2022-12-10T08:08:27;184.30;;;165.17;;
7881;SDS011;3986;41.884;23.466;2022-12-10T08:10:54;224.57;;;203.23;;
7881;SDS011;3986;41.884;23.466;2022-12-10T08:13:20;199.87;;;180.27;;
7881;SDS011;3986;41.884;23.466;2022-12-10T08:15:47;227.93;;;205.57;;
7881;SDS011;3986;41.884;23.466;2022-12-10T08:18:15;216.60;;;194.57;;
7881;SDS011;3986;41.884;23.466;2022-12-10T08:20:42;246.63;;;221.43;;
7881;SDS011;3986;41.884;23.466;2022-12-10T08:23:09;245.20;;;216.33;;
7881;SDS011;3986;41.884;23.466;2022-12-10T08:25:36;233.30;;;208.47;;
7881;SDS011;3986;41.884;23.466;2022-12-10T08:28:03;263.67;;;237.10;;
7881;SDS011;3986;41.884;23.466;2022-12-10T08:30:30;248.90;;;223.27;;
7881;SDS011;3986;41.884;23.466;2022-12-10T08:32:57;221.20;;;198.90;;
7881;SDS011;3986;41.884;23.466;2022-12-10T08:35:25;217.40;;;188.23;;
7881;SDS011;3986;41.884;23.466;2022-12-10T08:37:52;197.40;;;178.07;;
7881;SDS011;3986;41.884;23.466;2022-12-10T08:40:19;193.93;;;174.83;;
7881;SDS011;3986;41.884;23.466;2022-12-10T08:42:45;201.17;;;181.57;;
7881;SDS011;3986;41.884;23.466;2022-12-10T08:45:12;196.83;;;175.67;;
7881;SDS011;3986;41.884;23.466;2022-12-10T08:47:39;161.70;;;145.40;;
7881;SDS011;3986;41.884;23.466;2022-12-10T08:50:06;143.93;;;128.93;;
7881;SDS011;3986;41.884;23.466;2022-12-10T08:52:34;251.53;;;226.07;;
7881;SDS011;3986;41.884;23.466;2022-12-10T08:55:01;252.60;;;225.70;;
7881;SDS011;3986;41.884;23.466;2022-12-10T08:57:28;250.10;;;225.13;;
7881;SDS011;3986;41.884;23.466;2022-12-10T08:59:55;246.37;;;222.97;;
7881;SDS011;3986;41.884;23.466;2022-12-10T09:02:22;200.50;;;178.80;;
7881;SDS011;3986;41.884;23.466;2022-12-10T09:04:49;206.70;;;167.23;;
7881;SDS011;3986;41.884;23.466;2022-12-10T09:07:16;193.07;;;171.83;;
7881;SDS011;3986;41.884;23.466;2022-12-10T09:09:44;195.60;;;174.63;;
7881;SDS011;3986;41.884;23.466;2022-12-10T09:12:11;158.47;;;141.90;;
7881;SDS011;3986;41.884;23.466;2022-12-10T09:14:38;139.27;;;124.23;;
7881;SDS011;3986;41.884;23.466;2022-12-10T09:17:05;197.63;;;139.00;;
7881;SDS011;3986;41.884;23.466;2022-12-10T09:19:32;134.53;;;120.90;;
7881;SDS011;3986;41.884;23.466;2022-12-10T09:21:59;107.33;;;96.03;;
7881;SDS011;3986;41.884;23.466;2022-12-10T09:24:26;94.90;;;85.20;;
7881;SDS011;3986;41.884;23.466;2022-12-10T09:26:54;105.23;;;95.03;;
7881;SDS011;3986;41.884;23.466;2022-12-10T09:29:21;133.90;;;89.37;;
7881;SDS011;3986;41.884;23.466;2022-12-10T09:31:49;116.77;;;104.17;;
7881;SDS011;3986;41.884;23.466;2022-12-10T09:34:17;111.03;;;100.13;;
7881;SDS011;3986;41.884;23.466;2022-12-10T09:36:44;172.40;;;142.50;;
7881;SDS011;3986;41.884;23.466;2022-12-10T09:39:11;173.20;;;142.23;;
7881;SDS011;3986;41.884;23.466;2022-12-10T09:44:47;153.93;;;135.00;;
7881;SDS011;3986;41.884;23.466;2022-12-10T09:47:19;215.77;;;193.53;;
7881;SDS011;3986;41.884;23.466;2022-12-10T09:49:53;219.63;;;196.77;;
7881;SDS011;3986;41.884;23.466;2022-12-10T09:52:29;195.00;;;159.53;;
7881;SDS011;3986;41.884;23.466;2022-12-10T09:55:02;173.13;;;154.20;;
7881;SDS011;3986;41.884;23.466;2022-12-10T09:57:38;168.83;;;145.80;;
7881;SDS011;3986;41.884;23.466;2022-12-10T10:00:15;181.03;;;131.40;;
7881;SDS011;3986;41.884;23.466;2022-12-10T10:02:46;155.30;;;137.57;;
7881;SDS011;3986;41.884;23.466;2022-12-10T10:05:15;153.40;;;138.20;;
7881;SDS011;3986;41.884;23.466;2022-12-10T10:07:47;165.53;;;148.47;;
7881;SDS011;3986;41.884;23.466;2022-12-10T10:10:19;152.37;;;136.63;;
7881;SDS011;3986;41.884;23.466;2022-12-10T10:12:52;166.60;;;150.20;;
7881;SDS011;3986;41.884;23.466;2022-12-10T10:15:22;110.20;;;99.27;;
7881;SDS011;3986;41.884;23.466;2022-12-10T10:17:53;112.43;;;98.83;;
7881;SDS011;3986;41.884;23.466;2022-12-10T10:20:23;99.07;;;71.67;;
7881;SDS011;3986;41.884;23.466;2022-12-10T10:22:50;119.27;;;106.60;;
7881;SDS011;3986;41.884;23.466;2022-12-10T10:25:18;127.67;;;110.97;;
7881;SDS011;3986;41.884;23.466;2022-12-10T10:27:45;96.37;;;76.80;;
7881;SDS011;3986;41.884;23.466;2022-12-10T10:30:15;108.00;;;77.30;;
7881;SDS011;3986;41.884;23.466;2022-12-10T10:32:44;113.23;;;77.73;;
7881;SDS011;3986;41.884;23.466;2022-12-10T10:35:23;94.73;;;80.53;;
7881;SDS011;3986;41.884;23.466;2022-12-10T10:37:52;103.17;;;86.80;;
7881;SDS011;3986;41.884;23.466;2022-12-10T10:40:25;86.17;;;71.80;;
7881;SDS011;3986;41.884;23.466;2022-12-10T10:42:54;94.70;;;63.17;;
7881;SDS011;3986;41.884;23.466;2022-12-10T10:45:34;87.23;;;62.17;;
7881;SDS011;3986;41.884;23.466;2022-12-10T10:48:06;71.53;;;56.63;;
7881;SDS011;3986;41.884;23.466;2022-12-10T10:50:37;83.53;;;58.93;;
7881;SDS011;3986;41.884;23.466;2022-12-10T10:55:57;67.87;;;51.93;;
7881;SDS011;3986;41.884;23.466;2022-12-10T10:58:30;66.63;;;53.07;;
7881;SDS011;3986;41.884;23.466;2022-12-10T11:01:00;66.83;;;54.50;;
7881;SDS011;3986;41.884;23.466;2022-12-10T11:03:29;70.37;;;59.97;;
7881;SDS011;3986;41.884;23.466;2022-12-10T11:05:57;77.63;;;69.93;;
7881;SDS011;3986;41.884;23.466;2022-12-10T11:08:25;64.80;;;57.87;;
7881;SDS011;3986;41.884;23.466;2022-12-10T11:10:56;65.73;;;52.10;;
7881;SDS011;3986;41.884;23.466;2022-12-10T11:13:28;110.37;;;73.63;;
7881;SDS011;3986;41.884;23.466;2022-12-10T11:15:57;83.23;;;70.40;;
7881;SDS011;3986;41.884;23.466;2022-12-10T11:18:32;62.20;;;51.73;;
7881;SDS011;3986;41.884;23.466;2022-12-10T11:21:02;53.50;;;41.57;;
7881;SDS011;3986;41.884;23.466;2022-12-10T11:23:32;51.93;;;43.33;;
7881;SDS011;3986;41.884;23.466;2022-12-10T11:26:15;59.00;;;40.93;;
7881;SDS011;3986;41.884;23.466;2022-12-10T11:29:09;103.30;;;86.27;;
7881;SDS011;3986;41.884;23.466;2022-12-10T11:31:50;58.80;;;46.43;;
7881;SDS011;3986;41.884;23.466;2022-12-10T11:34:34;50.77;;;33.77;;
7881;SDS011;3986;41.884;23.466;2022-12-10T11:37:09;48.90;;;29.80;;
7881;SDS011;3986;41.884;23.466;2022-12-10T11:39:51;46.50;;;29.07;;
7881;SDS011;3986;41.884;23.466;2022-12-10T11:42:39;55.27;;;31.93;;
7881;SDS011;3986;41.884;23.466;2022-12-10T11:45:14;72.23;;;37.63;;
7881;SDS011;3986;41.884;23.466;2022-12-10T11:47:49;71.57;;;32.00;;
7881;SDS011;3986;41.884;23.466;2022-12-10T11:50:25;105.23;;;52.73;;
7881;SDS011;3986;41.884;23.466;2022-12-10T11:53:01;69.10;;;61.73;;
7881;SDS011;3986;41.884;23.466;2022-12-10T11:55:43;88.57;;;68.07;;
7881;SDS011;3986;41.884;23.466;2022-12-10T11:58:24;111.13;;;62.57;;
7881;SDS011;3986;41.884;23.466;2022-12-10T12:01:05;86.93;;;68.97;;
7881;SDS011;3986;41.884;23.466;2022-12-10T12:06:38;108.87;;;90.50;;
7881;SDS011;3986;41.884;23.466;2022-12-10T12:09:21;124.50;;;104.63;;
7881;SDS011;3986;41.884;23.466;2022-12-10T12:12:00;102.50;;;83.67;;
7881;SDS011;3986;41.884;23.466;2022-12-10T12:14:39;99.60;;;80.07;;
7881;SDS011;3986;41.884;23.466;2022-12-10T12:17:09;123.30;;;99.20;;
7881;SDS011;3986;41.884;23.466;2022-12-10T12:19:44;97.47;;;74.17;;
7881;SDS011;3986;41.884;23.466;2022-12-10T12:22:16;72.67;;;61.67;;
7881;SDS011;3986;41.884;23.466;2022-12-10T12:24:50;86.40;;;65.37;;
7881;SDS011;3986;41.884;23.466;2022-12-10T12:27:22;113.20;;;93.10;;
7881;SDS011;3986;41.884;23.466;2022-12-10T12:29:56;60.23;;;50.67;;
7881;SDS011;3986;41.884;23.466;2022-12-10T12:32:29;91.17;;;55.97;;
7881;SDS011;3986;41.884;23.466;2022-12-10T12:35:04;92.00;;;58.83;;
7881;SDS011;3986;41.884;23.466;2022-12-10T12:37:38;102.57;;;76.87;;
7881;SDS011;3986;41.884;23.466;2022-12-10T12:40:11;92.60;;;83.00;;
7881;SDS011;3986;41.884;23.466;2022-12-10T12:42:42;108.60;;;93.23;;
7881;SDS011;3986;41.884;23.466;2022-12-10T12:45:14;112.30;;;97.47;;
7881;SDS011;3986;41.884;23.466;2022-12-10T12:47:47;92.50;;;81.83;;
7881;SDS011;3986;41.884;23.466;2022-12-10T12:50:26;76.07;;;64.60;;
7881;SDS011;3986;41.884;23.466;2022-12-10T12:53:09;72.90;;;61.07;;
7881;SDS011;3986;41.884;23.466;2022-12-10T12:55:39;112.63;;;87.63;;
7881;SDS011;3986;41.884;23.466;2022-12-10T12:58:17;98.37;;;82.50;;
7881;SDS011;3986;41.884;23.466;2022-12-10T13:00:51;102.60;;;91.40;;
7881;SDS011;3986;41.884;23.466;2022-12-10T13:03:33;108.77;;;86.73;;
7881;SDS011;3986;41.884;23.466;2022-12-10T13:06:14;88.20;;;78.63;;
7881;SDS011;3986;41.884;23.466;2022-12-10T13:08:44;87.83;;;68.87;;
7881;SDS011;3986;41.884;23.466;2022-12-10T13:11:17;83.57;;;72.67;;
7881;SDS011;3986;41.884;23.466;2022-12-10T13:17:00;81.90;;;64.10;;
7881;SDS011;3986;41.884;23.466;2022-12-10T13:19:34;79.63;;;66.90;;
7881;SDS011;3986;41.884;23.466;2022-12-10T13:22:04;95.50;;;75.50;;
7881;SDS011;3986;41.884;23.466;2022-12-10T13:24:59;88.17;;;72.77;;
7881;SDS011;3986;41.884;23.466;2022-12-10T13:27:33;95.13;;;85.00;;
7881;SDS011;3986;41.884;23.466;2022-12-10T13:30:02;103.23;;;91.87;;
7881;SDS011;3986;41.884;23.466;2022-12-10T13:32:45;121.03;;;102.73;;
7881;SDS011;3986;41.884;23.466;2022-12-10T13:35:23;57.10;;;46.07;;
7881;SDS011;3986;41.884;23.466;2022-12-10T13:37:55;99.33;;;66.60;;
7881;SDS011;3986;41.884;23.466;2022-12-10T13:40:36;94.43;;;65.77;;
7881;SDS011;3986;41.884;23.466;2022-12-10T13:43:25;107.40;;;95.87;;
7881;SDS011;3986;41.884;23.466;2022-12-10T13:46:21;119.23;;;106.20;;
7881;SDS011;3986;41.884;23.466;2022-12-10T13:48:51;72.70;;;64.93;;
7881;SDS011;3986;41.884;23.466;2022-12-10T13:51:21;85.10;;;61.23;;
7881;SDS011;3986;41.884;23.466;2022-12-10T13:54:13;68.77;;;61.37;;
7881;SDS011;3986;41.884;23.466;2022-12-10T13:56:57;94.13;;;84.17;;
7881;SDS011;3986;41.884;23.466;2022-12-10T13:59:34;126.83;;;113.73;;
7881;SDS011;3986;41.884;23.466;2022-12-10T14:05:18;103.83;;;93.37;;
7881;SDS011;3986;41.884;23.466;2022-12-10T14:07:50;113.93;;;101.93;;
7881;SDS011;3986;41.884;23.466;2022-12-10T14:10:22;112.70;;;100.53;;
7881;SDS011;3986;41.884;23.466;2022-12-10T14:12:54;141.87;;;126.07;;
7881;SDS011;3986;41.884;23.466;2022-12-10T14:15:21;98.03;;;88.37;;
7881;SDS011;3986;41.884;23.466;2022-12-10T14:17:50;99.73;;;88.80;;
7881;SDS011;3986;41.884;23.466;2022-12-10T14:20:21;124.40;;;109.10;;
7881;SDS011;3986;41.884;23.466;2022-12-10T14:22:50;138.70;;;123.77;;
7881;SDS011;3986;41.884;23.466;2022-12-10T14:25:43;128.10;;;109.03;;
7881;SDS011;3986;41.884;23.466;2022-12-10T14:28:11;114.50;;;102.63;;
7881;SDS011;3986;41.884;23.466;2022-12-10T14:30:40;135.67;;;122.40;;
7881;SDS011;3986;41.884;23.466;2022-12-10T14:33:08;124.20;;;111.43;;
7881;SDS011;3986;41.884;23.466;2022-12-10T14:35:41;122.33;;;110.23;;
7881;SDS011;3986;41.884;23.466;2022-12-10T14:38:12;132.70;;;119.83;;
7881;SDS011;3986;41.884;23.466;2022-12-10T14:40:44;152.00;;;136.90;;
7881;SDS011;3986;41.884;23.466;2022-12-10T14:43:13;244.57;;;220.03;;
7881;SDS011;3986;41.884;23.466;2022-12-10T14:45:44;267.77;;;242.83;;
7881;SDS011;3986;41.884;23.466;2022-12-10T14:48:13;268.97;;;243.43;;
7881;SDS011;3986;41.884;23.466;2022-12-10T14:50:41;232.13;;;209.73;;
7881;SDS011;3986;41.884;23.466;2022-12-10T14:53:11;241.57;;;218.57;;
7881;SDS011;3986;41.884;23.466;2022-12-10T14:55:41;231.20;;;209.33;;